KRKW

Rockwood Municipal Airport

Rockwood, Tennessee, USA
METAR KRKW 151835Z AUTO 23009G15KT 200V260 10SM SCT032 BKN042 14/09 A2983 RMK A01
Observed Flight Rules
Feb-15 @ 18:35 UTC (36 minutes ago) Visual Flight Rules
Wind Visibility Clouds
230° at 9 knots
 Gusting to 15 knots
10 miles
  • Scattered at 3,200' AGL
  • Broken at 4,200' AGL
Temperatures Readings
Current 14°C / 57°F
Dewpoint 9°C / 48°F
Humidity 72%
Altimeter 29.83" Hg
Pressure 1010.12 hPa
Elevation 508
METAR KRKW 151835Z AUTO 23009G15KT 200V260 10SM SCT032 BKN042 14/09 A2983 RMK A01
Observed Flight Rules
Feb-15 @ 18:35 UTC
(36 minutes ago)
VFR
Wind Visibility
230° at 9 knots
 Gusting to 15 knots
10 miles
Clouds
  • Scattered at 3,200' AGL
  • Broken at 4,200' AGL
Temperature Dewpoint
14°C / 57°F 9°C / 48°F
Humidity Altimeter Pressure
72% 29.83" Hg 1010.12 hPa